createdAt,value
2022-12-31T00:01:49.903Z,100.00
2022-12-31T00:04:11.353Z,100.00
2022-12-31T00:06:35.299Z,100.00
2022-12-31T00:08:59.055Z,100.00
2022-12-31T00:11:22.206Z,100.00
2022-12-31T00:13:45.856Z,100.00
2022-12-31T00:16:22.074Z,100.00
2022-12-31T00:18:48.677Z,100.00
2022-12-31T00:21:10.662Z,100.00
2022-12-31T00:23:32.208Z,100.00
2022-12-31T00:25:53.623Z,100.00
2022-12-31T00:28:15.094Z,100.00
2022-12-31T00:30:36.602Z,100.00
2022-12-31T00:32:58.119Z,100.00
2022-12-31T00:35:19.546Z,100.00
2022-12-31T00:37:41.027Z,100.00
2022-12-31T00:40:02.514Z,100.00
2022-12-31T00:42:24.031Z,100.00
2022-12-31T00:44:45.447Z,100.00
2022-12-31T00:47:06.912Z,100.00
2022-12-31T00:49:28.331Z,100.00
2022-12-31T00:51:49.832Z,100.00
2022-12-31T00:54:11.256Z,100.00
2022-12-31T00:56:32.966Z,100.00
2022-12-31T00:58:54.460Z,100.00
2022-12-31T01:01:21.753Z,100.00
2022-12-31T01:03:43.757Z,100.00
2022-12-31T01:06:06.230Z,100.00
2022-12-31T01:08:28.185Z,100.00
2022-12-31T01:11:09.210Z,100.00
2022-12-31T01:13:30.653Z,100.00
2022-12-31T01:15:52.198Z,100.00
2022-12-31T01:18:13.859Z,100.00
2022-12-31T01:20:39.744Z,100.00
2022-12-31T01:23:01.189Z,100.00
2022-12-31T01:25:22.676Z,100.00
2022-12-31T01:27:44.206Z,100.00
2022-12-31T01:30:06.112Z,100.00
2022-12-31T01:32:27.564Z,100.00
2022-12-31T01:34:49.086Z,100.00
2022-12-31T01:37:10.573Z,100.00
2022-12-31T01:39:32.051Z,100.00
2022-12-31T01:41:53.530Z,100.00
2022-12-31T01:44:23.779Z,100.00
2022-12-31T01:46:49.625Z,100.00
2022-12-31T01:49:14.123Z,100.00
2022-12-31T01:51:36.762Z,100.00
2022-12-31T01:54:00.469Z,100.00
2022-12-31T01:56:23.808Z,100.00
2022-12-31T01:58:49.619Z,100.00
2022-12-31T02:01:15.300Z,100.00
2022-12-31T02:03:37.716Z,100.00
2022-12-31T02:06:11.842Z,100.00
2022-12-31T02:08:39.938Z,100.00
2022-12-31T02:11:21.132Z,100.00
2022-12-31T02:13:42.620Z,100.00
2022-12-31T02:16:21.807Z,100.00
2022-12-31T02:18:56.270Z,100.00
2022-12-31T02:21:54.129Z,100.00
2022-12-31T02:24:49.550Z,100.00
2022-12-31T02:27:14.921Z,100.00
2022-12-31T02:29:55.133Z,100.00
2022-12-31T02:32:24.802Z,100.00
2022-12-31T02:34:53.326Z,100.00
2022-12-31T02:37:17.385Z,100.00
2022-12-31T02:39:39.517Z,100.00
2022-12-31T02:42:02.141Z,100.00
2022-12-31T02:44:47.968Z,100.00
2022-12-31T02:47:09.377Z,100.00
2022-12-31T02:49:38.981Z,100.00
2022-12-31T02:52:39.094Z,100.00
2022-12-31T02:55:30.441Z,100.00
2022-12-31T02:58:43.936Z,100.00
2022-12-31T03:01:23.851Z,100.00
2022-12-31T03:03:45.669Z,100.00
2022-12-31T03:06:09.393Z,100.00
2022-12-31T03:08:30.873Z,100.00
2022-12-31T03:10:52.415Z,100.00
2022-12-31T03:13:13.880Z,100.00
2022-12-31T03:15:35.361Z,100.00
2022-12-31T03:18:07.771Z,100.00
2022-12-31T03:20:58.487Z,100.00
2022-12-31T03:23:27.186Z,100.00
2022-12-31T03:25:49.213Z,100.00
2022-12-31T03:28:16.786Z,100.00
2022-12-31T03:30:40.706Z,100.00
2022-12-31T03:33:03.489Z,100.00
2022-12-31T03:35:27.051Z,100.00
2022-12-31T03:37:50.079Z,100.00
2022-12-31T03:40:13.750Z,100.00
2022-12-31T03:42:35.224Z,100.00
2022-12-31T03:44:56.729Z,100.00
2022-12-31T03:47:18.169Z,100.00
2022-12-31T03:49:39.614Z,100.00
2022-12-31T03:52:03.058Z,100.00
2022-12-31T03:54:24.542Z,100.00
2022-12-31T03:56:49.449Z,100.00
2022-12-31T03:59:11.123Z,100.00
2022-12-31T04:01:32.803Z,100.00
2022-12-31T04:03:54.407Z,100.00
2022-12-31T04:06:15.928Z,100.00
2022-12-31T04:08:37.411Z,100.00
2022-12-31T04:10:58.891Z,100.00
2022-12-31T04:13:20.388Z,100.00
2022-12-31T04:15:41.841Z,100.00
2022-12-31T04:18:03.505Z,100.00
2022-12-31T04:20:25.102Z,100.00
2022-12-31T04:22:46.575Z,100.00
2022-12-31T04:25:11.711Z,100.00
2022-12-31T04:27:33.259Z,100.00
2022-12-31T04:29:54.702Z,100.00
2022-12-31T04:32:16.128Z,100.00
2022-12-31T04:34:37.754Z,100.00
2022-12-31T04:36:59.489Z,100.00
2022-12-31T04:39:21.018Z,100.00
2022-12-31T04:41:42.504Z,100.00
2022-12-31T04:44:04.086Z,100.00
2022-12-31T04:46:29.256Z,100.00
2022-12-31T04:48:50.974Z,100.00
2022-12-31T04:51:13.244Z,100.00
2022-12-31T04:53:34.724Z,100.00
2022-12-31T04:55:56.341Z,100.00
2022-12-31T04:58:18.318Z,100.00
2022-12-31T05:00:39.756Z,100.00
2022-12-31T05:03:01.242Z,100.00
2022-12-31T05:05:22.721Z,100.00
2022-12-31T05:07:44.173Z,100.00
2022-12-31T05:10:06.328Z,100.00
2022-12-31T05:12:27.802Z,100.00
2022-12-31T05:14:49.245Z,100.00
2022-12-31T05:17:10.684Z,100.00
2022-12-31T05:19:32.153Z,100.00
2022-12-31T05:22:12.236Z,100.00
2022-12-31T05:24:33.954Z,100.00
2022-12-31T05:26:55.413Z,100.00
2022-12-31T05:29:16.848Z,100.00
2022-12-31T05:31:38.305Z,100.00
2022-12-31T05:33:59.747Z,100.00
2022-12-31T05:36:21.235Z,100.00
2022-12-31T05:38:42.691Z,100.00
2022-12-31T05:41:07.524Z,100.00
2022-12-31T05:43:29.431Z,100.00
2022-12-31T05:45:50.910Z,100.00
2022-12-31T05:48:12.387Z,100.00
2022-12-31T05:50:33.887Z,100.00
2022-12-31T05:52:55.368Z,100.00
2022-12-31T05:55:16.826Z,100.00
2022-12-31T05:57:39.115Z,100.00
2022-12-31T06:00:00.562Z,100.00
2022-12-31T06:02:23.127Z,100.00
2022-12-31T06:04:44.585Z,100.00
2022-12-31T06:07:06.194Z,100.00
2022-12-31T06:09:27.619Z,100.00
2022-12-31T06:11:49.220Z,100.00
2022-12-31T06:14:10.823Z,100.00
2022-12-31T06:16:32.308Z,100.00
2022-12-31T06:18:54.272Z,100.00
2022-12-31T06:21:15.935Z,100.00
2022-12-31T06:23:37.388Z,100.00
2022-12-31T06:26:05.462Z,100.00
2022-12-31T06:28:26.887Z,100.00
2022-12-31T06:30:48.713Z,100.00
2022-12-31T06:33:10.220Z,100.00
2022-12-31T06:35:31.757Z,100.00
2022-12-31T06:37:53.231Z,100.00
2022-12-31T06:40:14.790Z,99.94
2022-12-31T06:42:36.305Z,100.00
2022-12-31T06:44:58.992Z,100.00
2022-12-31T06:47:20.477Z,100.00
2022-12-31T06:49:41.954Z,100.00
2022-12-31T06:52:03.516Z,99.44
2022-12-31T06:54:24.960Z,99.50
2022-12-31T06:56:46.648Z,100.00
2022-12-31T06:59:22.911Z,99.91
2022-12-31T07:02:03.548Z,99.89
2022-12-31T07:04:48.627Z,100.00
2022-12-31T07:07:43.185Z,100.00
2022-12-31T07:10:16.550Z,99.97
2022-12-31T07:13:40.580Z,99.92
2022-12-31T07:16:20.242Z,99.72
2022-12-31T07:19:01.994Z,99.34
2022-12-31T07:21:44.171Z,99.31
2022-12-31T07:24:07.358Z,98.95
2022-12-31T07:26:57.315Z,99.15
2022-12-31T07:29:32.261Z,98.96
2022-12-31T07:32:42.470Z,99.08
2022-12-31T07:35:35.095Z,98.88
2022-12-31T07:38:24.977Z,99.01
2022-12-31T07:41:07.255Z,98.73
2022-12-31T07:43:55.952Z,98.12
2022-12-31T07:46:21.456Z,97.87
2022-12-31T07:48:43.175Z,97.41
2022-12-31T07:51:05.111Z,97.64
2022-12-31T07:53:27.313Z,96.95
2022-12-31T07:55:54.609Z,97.05
2022-12-31T07:58:24.121Z,96.22
2022-12-31T08:00:45.984Z,95.96
2022-12-31T08:03:19.370Z,96.73
2022-12-31T08:05:40.764Z,95.86
2022-12-31T08:08:24.917Z,95.23
2022-12-31T08:11:04.526Z,95.32
2022-12-31T08:13:27.334Z,96.19
2022-12-31T08:15:49.111Z,96.43
2022-12-31T08:18:10.942Z,95.75
2022-12-31T08:20:36.892Z,95.10
2022-12-31T08:23:01.003Z,94.95
2022-12-31T08:26:00.445Z,94.69
2022-12-31T08:28:31.005Z,95.02
2022-12-31T08:31:03.951Z,94.27
2022-12-31T08:33:46.805Z,94.44
2022-12-31T08:36:27.882Z,94.14
2022-12-31T08:39:02.305Z,94.24
2022-12-31T08:41:44.303Z,94.18
2022-12-31T08:44:32.171Z,94.09
2022-12-31T08:46:57.531Z,94.11
2022-12-31T08:49:19.240Z,94.00
2022-12-31T08:51:40.998Z,93.05
2022-12-31T08:54:02.801Z,93.58
2022-12-31T08:56:40.067Z,93.31
2022-12-31T08:59:27.841Z,93.24
2022-12-31T09:01:49.362Z,92.39
2022-12-31T09:04:27.085Z,92.36
2022-12-31T09:06:58.678Z,92.37
2022-12-31T09:09:27.185Z,91.96
2022-12-31T09:11:54.295Z,92.30
2022-12-31T09:14:39.133Z,91.60
2022-12-31T09:17:24.026Z,91.67
2022-12-31T09:19:45.612Z,91.17
2022-12-31T09:22:07.282Z,91.80
2022-12-31T09:24:28.947Z,91.16
2022-12-31T09:26:53.320Z,90.80
2022-12-31T09:29:33.469Z,89.71
2022-12-31T09:32:36.414Z,90.07
2022-12-31T09:35:31.766Z,89.46
2022-12-31T09:38:37.727Z,88.94
2022-12-31T09:41:28.956Z,88.00
2022-12-31T09:44:19.417Z,87.38
2022-12-31T09:47:03.889Z,87.93
2022-12-31T09:49:59.361Z,86.51
2022-12-31T09:52:25.421Z,87.21
2022-12-31T09:55:00.339Z,86.64
2022-12-31T09:57:39.274Z,86.90
2022-12-31T10:00:03.713Z,86.92
2022-12-31T10:03:06.583Z,86.76
2022-12-31T10:05:52.931Z,86.94
2022-12-31T10:08:36.132Z,86.23
2022-12-31T10:11:04.320Z,86.26
2022-12-31T10:13:35.410Z,86.61
2022-12-31T10:16:13.512Z,86.52
2022-12-31T10:18:59.754Z,85.55
2022-12-31T10:21:48.747Z,85.00
2022-12-31T10:24:12.928Z,85.36
2022-12-31T10:27:04.568Z,85.44
2022-12-31T10:29:45.346Z,84.67
2022-12-31T10:32:31.208Z,84.08
2022-12-31T10:35:00.691Z,84.38
2022-12-31T10:37:34.355Z,84.96
2022-12-31T10:40:09.453Z,83.39
2022-12-31T10:42:49.133Z,83.62
2022-12-31T10:46:08.674Z,83.84
2022-12-31T10:48:49.993Z,83.66
2022-12-31T10:51:34.867Z,82.39
2022-12-31T10:54:08.219Z,82.99
2022-12-31T10:56:50.691Z,82.59
2022-12-31T10:59:44.319Z,82.66
2022-12-31T11:02:24.328Z,83.12
2022-12-31T11:05:10.410Z,81.98
2022-12-31T11:08:02.762Z,82.78
2022-12-31T11:10:42.967Z,82.46
2022-12-31T11:13:33.895Z,82.80
2022-12-31T11:16:17.806Z,82.83
2022-12-31T11:19:01.948Z,83.33
2022-12-31T11:21:50.557Z,83.04
2022-12-31T11:24:42.989Z,83.13
2022-12-31T11:27:16.308Z,83.64
2022-12-31T11:30:00.951Z,82.94
2022-12-31T11:32:50.913Z,83.01
2022-12-31T11:35:28.218Z,82.17
2022-12-31T11:37:58.565Z,82.50
2022-12-31T11:40:48.402Z,82.77
2022-12-31T11:43:21.096Z,83.22
2022-12-31T11:46:13.425Z,83.19
2022-12-31T11:49:02.560Z,83.11
2022-12-31T11:51:58.135Z,81.75
2022-12-31T11:54:28.611Z,83.00
2022-12-31T11:57:16.474Z,82.30
2022-12-31T11:59:37.983Z,81.19
2022-12-31T12:02:10.168Z,81.32
2022-12-31T12:04:31.796Z,81.26
2022-12-31T12:06:53.444Z,80.88
2022-12-31T12:09:20.540Z,80.30
2022-12-31T12:11:42.135Z,80.14
2022-12-31T12:14:44.242Z,80.35
2022-12-31T12:17:15.093Z,80.56
2022-12-31T12:19:43.252Z,80.57
2022-12-31T12:22:13.273Z,80.44
2022-12-31T12:24:34.825Z,81.49
2022-12-31T12:26:57.526Z,81.56
2022-12-31T12:29:31.955Z,81.00
2022-12-31T12:32:01.016Z,81.20
2022-12-31T12:34:34.825Z,81.07
2022-12-31T12:36:56.651Z,81.81
2022-12-31T12:39:33.258Z,80.99
2022-12-31T12:42:05.562Z,81.26
2022-12-31T12:44:27.475Z,80.74
2022-12-31T12:46:52.220Z,80.64
2022-12-31T12:49:29.423Z,81.19
2022-12-31T12:51:56.900Z,80.32
2022-12-31T12:54:52.970Z,80.81
2022-12-31T12:57:29.135Z,80.40
2022-12-31T13:00:14.355Z,80.90
2022-12-31T13:03:08.142Z,80.58
2022-12-31T13:05:51.286Z,79.77
2022-12-31T13:08:32.259Z,79.20
2022-12-31T13:11:29.085Z,80.01
2022-12-31T13:13:58.645Z,79.67
2022-12-31T13:16:34.075Z,79.78
2022-12-31T13:19:05.745Z,79.80
2022-12-31T13:21:31.808Z,79.84
2022-12-31T13:24:11.599Z,79.52
2022-12-31T13:26:42.210Z,80.41
2022-12-31T13:29:05.670Z,80.81
2022-12-31T13:31:33.823Z,80.53
2022-12-31T13:34:10.853Z,80.30
2022-12-31T13:36:35.717Z,80.11
2022-12-31T13:39:02.835Z,80.31
2022-12-31T13:41:39.943Z,80.87
2022-12-31T13:44:22.521Z,79.38
2022-12-31T13:47:08.122Z,80.26
2022-12-31T13:49:52.628Z,79.74
2022-12-31T13:52:35.501Z,80.83
2022-12-31T13:55:18.839Z,79.32
2022-12-31T13:58:12.644Z,79.14
2022-12-31T14:00:58.181Z,78.72
2022-12-31T14:03:44.223Z,80.46
2022-12-31T14:06:22.363Z,78.73
2022-12-31T14:08:45.523Z,78.96
2022-12-31T14:11:15.897Z,79.49
2022-12-31T14:13:45.525Z,78.46
2022-12-31T14:16:34.530Z,78.00
2022-12-31T14:19:31.021Z,78.75
2022-12-31T14:21:56.865Z,78.25
2022-12-31T14:24:45.928Z,78.56
2022-12-31T14:27:14.915Z,78.90
2022-12-31T14:29:49.334Z,79.04
2022-12-31T14:32:16.488Z,78.78
2022-12-31T14:35:04.205Z,79.16
2022-12-31T14:37:55.779Z,79.63
2022-12-31T14:40:26.273Z,79.42
2022-12-31T14:43:06.882Z,79.41
2022-12-31T14:45:36.124Z,78.81
2022-12-31T14:48:28.574Z,79.20
2022-12-31T14:50:50.619Z,78.71
2022-12-31T14:53:38.485Z,78.74
2022-12-31T14:56:05.962Z,78.98
2022-12-31T14:58:36.580Z,79.03
2022-12-31T15:01:08.856Z,79.66
2022-12-31T15:03:40.113Z,79.07
2022-12-31T15:06:24.624Z,79.54
2022-12-31T15:08:46.032Z,78.99
2022-12-31T15:11:23.466Z,79.81
2022-12-31T15:13:54.101Z,79.34
2022-12-31T15:16:48.573Z,78.84
2022-12-31T15:19:18.939Z,79.42
2022-12-31T15:21:54.839Z,79.81
2022-12-31T15:24:28.008Z,80.03
2022-12-31T15:26:55.863Z,79.72
2022-12-31T15:29:30.737Z,79.00
2022-12-31T15:31:53.196Z,79.64
2022-12-31T15:34:30.468Z,79.66
2022-12-31T15:36:59.013Z,79.39
2022-12-31T15:39:32.573Z,79.17
2022-12-31T15:44:50.011Z,79.42
2022-12-31T15:47:45.826Z,79.48
2022-12-31T15:50:18.077Z,79.67
2022-12-31T15:52:44.499Z,79.82
2022-12-31T15:55:06.996Z,79.25
2022-12-31T15:57:34.190Z,79.25
2022-12-31T16:00:01.202Z,79.46
2022-12-31T16:02:25.642Z,79.23
2022-12-31T16:04:48.419Z,78.98
2022-12-31T16:07:12.401Z,79.77
2022-12-31T16:09:35.948Z,79.82
2022-12-31T16:11:59.084Z,79.25
2022-12-31T16:14:24.774Z,79.27
2022-12-31T16:16:57.947Z,78.54
2022-12-31T16:19:31.380Z,79.63
2022-12-31T16:21:56.360Z,78.97
2022-12-31T16:24:32.118Z,78.65
2022-12-31T16:26:56.652Z,77.64
2022-12-31T16:29:21.668Z,77.89
2022-12-31T16:31:45.378Z,77.67
2022-12-31T16:34:14.861Z,77.43
2022-12-31T16:36:36.327Z,77.70
2022-12-31T16:39:24.167Z,76.44
2022-12-31T16:41:45.629Z,76.97
2022-12-31T16:44:25.105Z,76.51
2022-12-31T16:46:47.575Z,76.24
2022-12-31T16:49:20.847Z,76.74
2022-12-31T16:51:43.017Z,76.38
2022-12-31T16:54:04.636Z,76.25
2022-12-31T16:56:33.393Z,76.07
2022-12-31T16:59:01.940Z,75.81
2022-12-31T17:01:27.931Z,75.69
2022-12-31T17:03:55.350Z,75.79
2022-12-31T17:06:20.016Z,74.42
2022-12-31T17:08:42.869Z,74.67
2022-12-31T17:11:04.567Z,75.01
2022-12-31T17:13:32.239Z,74.57
2022-12-31T17:15:55.012Z,74.19
2022-12-31T17:18:22.858Z,74.09
2022-12-31T17:20:44.810Z,73.84
2022-12-31T17:23:08.830Z,72.99
2022-12-31T17:25:32.835Z,72.86
2022-12-31T17:28:00.235Z,72.94
2022-12-31T17:30:27.854Z,73.03
2022-12-31T17:32:50.189Z,72.67
2022-12-31T17:35:35.393Z,71.76
2022-12-31T17:38:22.018Z,71.60
2022-12-31T17:40:52.812Z,71.96
2022-12-31T17:43:15.260Z,72.16
2022-12-31T17:45:38.407Z,71.88
2022-12-31T17:47:59.930Z,72.03
2022-12-31T17:50:24.608Z,72.38
2022-12-31T17:52:46.801Z,71.57
2022-12-31T17:55:08.314Z,71.19
2022-12-31T17:57:29.914Z,70.44
2022-12-31T17:59:51.517Z,70.56
2022-12-31T18:02:13.292Z,70.99
2022-12-31T18:04:34.834Z,70.60
2022-12-31T18:06:56.350Z,71.27
2022-12-31T18:09:18.146Z,70.34
2022-12-31T18:11:40.621Z,70.25
2022-12-31T18:14:02.353Z,70.35
2022-12-31T18:16:23.981Z,69.40
2022-12-31T18:18:45.758Z,69.65
2022-12-31T18:21:13.925Z,69.69
2022-12-31T18:23:37.682Z,69.62
2022-12-31T18:25:59.132Z,69.27
2022-12-31T18:28:21.045Z,69.73
2022-12-31T18:30:43.422Z,68.89
2022-12-31T18:33:06.475Z,69.27
2022-12-31T18:35:58.063Z,68.79
2022-12-31T18:38:14.270Z,69.39
2022-12-31T18:40:35.886Z,68.19
2022-12-31T18:43:02.675Z,68.37
2022-12-31T18:45:26.265Z,66.93
2022-12-31T18:47:47.822Z,67.50
2022-12-31T18:50:14.553Z,67.32
2022-12-31T18:52:36.091Z,67.50
2022-12-31T18:54:58.283Z,67.46
2022-12-31T18:57:19.737Z,66.89
2022-12-31T18:59:41.725Z,66.70
2022-12-31T19:02:03.569Z,67.43
2022-12-31T19:04:28.269Z,67.22
2022-12-31T19:06:50.032Z,66.79
2022-12-31T19:09:30.641Z,66.97
2022-12-31T19:11:54.252Z,67.43
2022-12-31T19:14:18.554Z,67.10
2022-12-31T19:16:40.085Z,65.92
2022-12-31T19:19:06.782Z,66.50
2022-12-31T19:21:30.044Z,65.75
2022-12-31T19:23:51.816Z,65.65
2022-12-31T19:26:21.414Z,65.11
2022-12-31T19:28:44.155Z,65.21
2022-12-31T19:31:05.693Z,64.42
2022-12-31T19:33:27.128Z,64.52
2022-12-31T19:35:49.249Z,63.63
2022-12-31T19:38:28.719Z,62.96
2022-12-31T19:40:51.015Z,63.25
2022-12-31T19:43:14.434Z,62.38
2022-12-31T19:45:35.906Z,63.45
2022-12-31T19:47:57.396Z,62.26
2022-12-31T19:50:25.557Z,62.07
2022-12-31T19:52:49.260Z,62.63
2022-12-31T19:55:16.675Z,61.96
2022-12-31T19:57:38.141Z,62.02
2022-12-31T19:59:59.606Z,61.09
2022-12-31T20:02:21.296Z,60.90
2022-12-31T20:04:42.850Z,61.40
2022-12-31T20:07:04.321Z,60.62
2022-12-31T20:09:25.836Z,58.98
2022-12-31T20:11:47.326Z,60.09
2022-12-31T20:14:08.771Z,60.12
2022-12-31T20:16:31.833Z,59.39
2022-12-31T20:18:53.436Z,59.16
2022-12-31T20:21:20.992Z,58.18
2022-12-31T20:23:42.413Z,58.28
2022-12-31T20:26:04.070Z,58.00
2022-12-31T20:28:26.035Z,58.05
2022-12-31T20:30:47.519Z,57.59
2022-12-31T20:33:10.388Z,57.88
2022-12-31T20:35:34.653Z,57.54
2022-12-31T20:37:56.216Z,57.44
2022-12-31T20:40:17.646Z,56.28
2022-12-31T20:42:40.707Z,56.57
2022-12-31T20:45:02.201Z,56.74
2022-12-31T20:47:23.674Z,56.98
2022-12-31T20:50:10.524Z,56.34
2022-12-31T20:52:26.497Z,55.35
2022-12-31T20:54:47.963Z,55.48
2022-12-31T20:57:09.463Z,55.45
2022-12-31T20:59:30.972Z,55.34
2022-12-31T21:04:33.975Z,54.38
2022-12-31T21:06:55.601Z,54.72
2022-12-31T21:09:17.052Z,54.15
2022-12-31T21:11:56.870Z,55.04
2022-12-31T21:14:18.327Z,54.23
2022-12-31T21:16:39.775Z,54.57
2022-12-31T21:19:01.721Z,54.77
2022-12-31T21:21:23.689Z,54.77
2022-12-31T21:23:45.156Z,54.75
2022-12-31T21:26:07.097Z,54.95
2022-12-31T21:28:28.551Z,54.59
2022-12-31T21:30:49.987Z,55.01
2022-12-31T21:33:11.462Z,54.85
2022-12-31T21:35:44.436Z,54.70
2022-12-31T21:38:09.023Z,54.74
2022-12-31T21:40:30.969Z,54.62
2022-12-31T21:42:52.407Z,54.31
2022-12-31T21:45:13.953Z,54.16
2022-12-31T21:47:53.822Z,53.70
2022-12-31T21:50:15.348Z,54.07
2022-12-31T21:52:36.818Z,53.67
2022-12-31T21:55:21.527Z,53.57
2022-12-31T21:58:15.583Z,53.26
2022-12-31T22:00:45.028Z,53.71
2022-12-31T22:03:25.112Z,54.48
2022-12-31T22:05:49.669Z,54.20
2022-12-31T22:08:11.121Z,54.80
2022-12-31T22:10:37.080Z,54.91
2022-12-31T22:12:59.988Z,54.80
2022-12-31T22:15:21.456Z,55.28
2022-12-31T22:17:42.909Z,55.55
2022-12-31T22:22:46.525Z,55.76
2022-12-31T22:25:08.630Z,56.09
2022-12-31T22:27:30.214Z,54.99
2022-12-31T22:29:51.692Z,54.91
2022-12-31T22:32:13.144Z,54.96
2022-12-31T22:34:34.562Z,55.02
2022-12-31T22:36:56.014Z,54.72
2022-12-31T22:39:43.861Z,54.71
2022-12-31T22:41:59.165Z,54.93
2022-12-31T22:44:20.837Z,54.86
2022-12-31T22:46:42.391Z,55.26
2022-12-31T22:49:04.382Z,54.87
2022-12-31T22:51:54.958Z,54.46
2022-12-31T22:54:08.007Z,54.98
2022-12-31T22:56:29.468Z,55.30
2022-12-31T22:58:50.886Z,55.58
2022-12-31T23:01:19.075Z,55.42
2022-12-31T23:03:43.756Z,55.71
2022-12-31T23:06:05.274Z,55.35
2022-12-31T23:08:26.775Z,55.34
2022-12-31T23:11:05.499Z,54.56
2022-12-31T23:13:50.499Z,55.55
2022-12-31T23:16:31.417Z,54.79
2022-12-31T23:19:11.542Z,55.39
2022-12-31T23:21:51.392Z,55.24
2022-12-31T23:24:20.183Z,55.49
2022-12-31T23:26:44.509Z,55.27
2022-12-31T23:29:05.965Z,55.06
2022-12-31T23:31:28.903Z,55.49
2022-12-31T23:33:50.389Z,55.34
2022-12-31T23:36:11.907Z,55.82
2022-12-31T23:38:33.504Z,54.74
2022-12-31T23:40:54.937Z,54.78
2022-12-31T23:43:22.240Z,54.80
2022-12-31T23:45:43.715Z,54.39
2022-12-31T23:48:05.283Z,54.35
2022-12-31T23:50:26.999Z,54.98
2022-12-31T23:52:48.531Z,55.39
2022-12-31T23:55:10.130Z,55.51
2022-12-31T23:57:31.811Z,55.23
2022-12-31T23:59:53.314Z,55.08
